createdAt,value
2018-04-15T00:00:48.705Z,24.87
2018-04-15T00:03:16.160Z,24.57
2018-04-15T00:05:43.615Z,26.23
2018-04-15T00:08:11.077Z,26.37
2018-04-15T00:10:38.536Z,26.23
2018-04-15T00:13:06.001Z,26.90
2018-04-15T00:15:33.450Z,26.77
2018-04-15T00:18:01.681Z,24.77
2018-04-15T00:20:29.154Z,24.93
2018-04-15T00:22:56.620Z,24.97
2018-04-15T00:25:24.065Z,25.17
2018-04-15T00:27:51.510Z,26.07
2018-04-15T00:30:18.963Z,28.10
2018-04-15T00:32:46.412Z,26.57
2018-04-15T00:35:13.852Z,26.27
2018-04-15T00:37:41.320Z,27.70
2018-04-15T00:40:08.787Z,27.60
2018-04-15T00:42:36.238Z,27.83
2018-04-15T00:45:03.697Z,27.30
2018-04-15T00:47:31.154Z,27.67
2018-04-15T00:49:58.604Z,26.40
2018-04-15T00:52:26.833Z,27.13
2018-04-15T00:54:55.052Z,24.73
2018-04-15T00:57:22.514Z,25.57
2018-04-15T00:59:49.961Z,28.47
2018-04-15T01:02:17.416Z,28.67
2018-04-15T01:04:44.888Z,25.30
2018-04-15T01:07:12.342Z,25.60
2018-04-15T01:09:39.785Z,27.50
2018-04-15T01:12:07.992Z,25.17
2018-04-15T01:14:35.452Z,29.73
2018-04-15T01:17:02.897Z,26.40
2018-04-15T01:19:30.349Z,24.90
2018-04-15T01:21:58.552Z,28.43
2018-04-15T01:24:26.007Z,25.77
2018-04-15T01:26:53.444Z,24.87
2018-04-15T01:29:21.676Z,25.13
2018-04-15T01:31:49.139Z,26.40
2018-04-15T01:34:16.683Z,26.67
2018-04-15T01:36:44.150Z,26.87
2018-04-15T01:39:11.632Z,25.40
2018-04-15T01:41:39.082Z,25.47
2018-04-15T01:44:06.542Z,27.20
2018-04-15T01:46:34.053Z,28.37
2018-04-15T01:49:01.502Z,27.07
2018-04-15T01:51:28.957Z,27.50
2018-04-15T01:53:56.419Z,25.40
2018-04-15T01:56:23.863Z,27.37
2018-04-15T01:58:51.326Z,30.53
2018-04-15T02:01:18.759Z,26.63
2018-04-15T02:03:46.206Z,25.07
2018-04-15T02:06:14.428Z,25.77
2018-04-15T02:08:41.896Z,29.43
2018-04-15T02:11:09.340Z,29.90
2018-04-15T02:13:36.791Z,26.03
2018-04-15T02:16:04.240Z,25.47
2018-04-15T02:18:32.475Z,29.70
2018-04-15T02:20:59.928Z,27.27
2018-04-15T02:23:27.398Z,27.77
2018-04-15T02:25:54.847Z,25.70
2018-04-15T02:28:22.348Z,27.03
2018-04-15T02:30:49.819Z,24.47
2018-04-15T02:33:18.050Z,27.17
2018-04-15T02:35:45.514Z,30.63
2018-04-15T02:38:12.952Z,26.03
2018-04-15T02:40:40.411Z,28.47
2018-04-15T02:43:08.634Z,25.23
2018-04-15T02:45:36.082Z,30.93
2018-04-15T02:48:03.528Z,24.47
2018-04-15T02:50:30.978Z,25.07
2018-04-15T02:52:59.188Z,26.43
2018-04-15T02:55:26.637Z,25.97
2018-04-15T02:57:54.113Z,23.13
2018-04-15T03:00:21.541Z,26.60
2018-04-15T03:02:49.781Z,28.70
2018-04-15T03:05:17.243Z,26.53
2018-04-15T03:07:44.697Z,28.97
2018-04-15T03:10:12.300Z,31.60
2018-04-15T03:12:39.748Z,24.83
2018-04-15T03:15:07.992Z,29.40
2018-04-15T03:17:35.449Z,25.73
2018-04-15T03:20:02.911Z,29.23
2018-04-15T03:22:30.365Z,31.10
2018-04-15T03:24:57.814Z,29.83
2018-04-15T03:27:25.258Z,32.10
2018-04-15T03:29:53.492Z,28.57
2018-04-15T03:32:20.936Z,30.60
2018-04-15T03:34:48.407Z,31.07
2018-04-15T03:37:15.856Z,29.50
2018-04-15T03:39:43.308Z,30.43
2018-04-15T03:42:10.782Z,30.97
2018-04-15T03:44:38.237Z,28.03
2018-04-15T03:47:05.708Z,29.93
2018-04-15T03:49:33.161Z,29.97
2018-04-15T03:52:01.372Z,29.43
2018-04-15T03:54:28.881Z,30.77
2018-04-15T03:56:57.109Z,27.77
2018-04-15T03:59:24.566Z,29.63
2018-04-15T04:01:51.995Z,29.87
2018-04-15T04:04:20.229Z,27.97
2018-04-15T04:06:47.664Z,30.67
2018-04-15T04:09:15.133Z,30.43
2018-04-15T04:11:42.569Z,30.30
2018-04-15T04:14:10.026Z,32.90
2018-04-15T04:16:38.249Z,32.00
2018-04-15T04:19:17.540Z,25.97
2018-04-15T04:21:57.762Z,27.13
2018-04-15T04:24:37.113Z,26.40
2018-04-15T04:27:05.630Z,29.60
2018-04-15T04:29:33.089Z,30.23
2018-04-15T04:32:00.543Z,27.53
2018-04-15T04:34:28.766Z,31.10
2018-04-15T04:36:56.999Z,31.20
2018-04-15T04:39:25.217Z,34.87
2018-04-15T04:41:52.681Z,32.77
2018-04-15T04:44:20.128Z,25.53
2018-04-15T04:46:47.568Z,31.47
2018-04-15T04:49:15.780Z,30.70
2018-04-15T04:51:43.245Z,30.60
2018-04-15T04:54:10.721Z,29.57
2018-04-15T04:56:38.159Z,28.53
2018-04-15T04:59:05.607Z,31.37
2018-04-15T05:01:33.060Z,32.27
2018-04-15T05:06:34.441Z,30.67
2018-04-15T05:09:02.661Z,33.13
2018-04-15T05:11:30.123Z,31.33
2018-04-15T05:13:57.581Z,31.90
2018-04-15T05:16:25.050Z,31.13
2018-04-15T05:18:52.518Z,30.60
2018-04-15T05:21:19.968Z,32.80
2018-04-15T05:23:47.409Z,30.73
2018-04-15T05:26:14.883Z,33.57
2018-04-15T05:28:42.346Z,34.17
2018-04-15T05:31:10.334Z,27.67
2018-04-15T05:33:37.802Z,34.63
2018-04-15T05:36:05.258Z,34.60
2018-04-15T05:38:32.722Z,32.67
2018-04-15T05:41:00.165Z,33.33
2018-04-15T05:43:27.651Z,32.37
2018-04-15T05:45:55.107Z,31.53
2018-04-15T05:48:22.543Z,27.60
2018-04-15T05:50:49.985Z,30.63
2018-04-15T05:53:18.203Z,30.90
2018-04-15T05:55:45.652Z,34.17
2018-04-15T05:58:13.111Z,34.77
2018-04-15T06:00:40.589Z,31.03
2018-04-15T06:03:08.058Z,31.40
2018-04-15T06:05:35.513Z,28.70
2018-04-15T06:08:02.979Z,35.17
2018-04-15T06:10:30.448Z,36.77
2018-04-15T06:12:57.903Z,44.00
2018-04-15T06:15:25.344Z,30.37
2018-04-15T06:17:52.810Z,30.50
2018-04-15T06:20:20.292Z,30.27
2018-04-15T06:22:47.732Z,31.87
2018-04-15T06:25:15.235Z,34.17
2018-04-15T06:27:42.701Z,30.73
2018-04-15T06:30:10.166Z,28.90
2018-04-15T06:32:37.683Z,30.93
2018-04-15T06:35:05.136Z,39.73
2018-04-15T06:37:33.367Z,40.10
2018-04-15T06:40:00.831Z,32.90
2018-04-15T06:42:28.294Z,35.83
2018-04-15T06:44:55.775Z,38.93
2018-04-15T06:47:23.310Z,43.37
2018-04-15T06:49:50.773Z,43.50
2018-04-15T06:52:18.211Z,35.87
2018-04-15T06:54:45.991Z,36.30
2018-04-15T06:57:13.431Z,39.37
2018-04-15T06:59:41.641Z,33.40
2018-04-15T07:02:09.092Z,36.63
2018-04-15T07:04:36.559Z,36.23
2018-04-15T07:07:04.034Z,30.07
2018-04-15T07:09:31.537Z,30.27
2018-04-15T07:11:58.958Z,35.43
2018-04-15T07:14:26.425Z,41.07
2018-04-15T07:16:53.917Z,33.07
2018-04-15T07:19:21.389Z,37.37
2018-04-15T07:21:48.944Z,36.33
2018-04-15T07:24:16.381Z,35.83
2018-04-15T07:26:43.833Z,34.60
2018-04-15T07:29:12.512Z,43.00
2018-04-15T07:31:40.528Z,41.67
2018-04-15T07:34:07.980Z,34.87
2018-04-15T07:36:35.489Z,40.23
2018-04-15T07:39:02.900Z,40.07
2018-04-15T07:41:31.121Z,33.30
2018-04-15T07:43:58.580Z,30.97
2018-04-15T07:46:26.798Z,32.93
2018-04-15T07:48:54.254Z,37.37
2018-04-15T07:51:21.756Z,35.57
2018-04-15T07:53:49.255Z,36.07
2018-04-15T07:56:17.534Z,39.33
2018-04-15T07:58:44.932Z,39.23
2018-04-15T08:01:12.392Z,40.20
2018-04-15T08:03:39.863Z,38.37
2018-04-15T08:06:07.316Z,36.70
2018-04-15T08:08:34.787Z,41.40
2018-04-15T08:11:02.255Z,42.07
2018-04-15T08:13:29.730Z,37.43
2018-04-15T08:15:57.193Z,41.43
2018-04-15T08:18:24.641Z,41.87
2018-04-15T08:20:52.196Z,41.03
2018-04-15T08:23:19.670Z,42.67
2018-04-15T08:25:47.160Z,40.33
2018-04-15T08:28:14.631Z,39.40
2018-04-15T08:30:42.103Z,42.10
2018-04-15T08:33:09.547Z,41.43
2018-04-15T08:35:37.764Z,44.00
2018-04-15T08:38:06.074Z,40.17
2018-04-15T08:40:34.996Z,49.33
2018-04-15T08:43:02.504Z,50.03
2018-04-15T08:45:29.946Z,51.63
2018-04-15T08:47:57.403Z,47.73
2018-04-15T08:50:24.875Z,46.33
2018-04-15T08:52:52.337Z,49.60
2018-04-15T08:55:19.798Z,49.83
2018-04-15T08:57:47.269Z,53.43
2018-04-15T09:00:14.743Z,48.47
2018-04-15T09:02:42.973Z,47.80
2018-04-15T09:05:10.418Z,52.37
2018-04-15T09:07:37.894Z,44.47
2018-04-15T09:10:05.348Z,45.00
2018-04-15T09:12:32.782Z,45.37
2018-04-15T09:15:00.996Z,42.77
2018-04-15T09:17:28.438Z,39.07
2018-04-15T09:19:55.916Z,42.73
2018-04-15T09:22:23.524Z,45.17
2018-04-15T09:24:50.977Z,48.23
2018-04-15T09:27:18.438Z,40.60
2018-04-15T09:29:45.893Z,43.83
2018-04-15T09:32:13.368Z,44.27
2018-04-15T09:34:40.988Z,38.53
2018-04-15T09:37:08.447Z,45.03
2018-04-15T09:39:35.901Z,46.37
2018-04-15T09:42:03.357Z,45.10
2018-04-15T09:44:31.588Z,45.70
2018-04-15T09:46:59.036Z,46.83
2018-04-15T09:49:26.504Z,49.23
2018-04-15T09:51:54.764Z,47.00
2018-04-15T09:54:22.219Z,46.33
2018-04-15T09:56:49.655Z,43.90
2018-04-15T09:59:18.920Z,42.83
2018-04-15T10:01:46.374Z,41.03
2018-04-15T10:04:13.826Z,37.97
2018-04-15T10:06:41.285Z,34.60
2018-04-15T10:09:08.742Z,31.67
2018-04-15T10:11:36.184Z,25.33
2018-04-15T10:14:04.397Z,23.17
2018-04-15T10:16:31.856Z,22.67
2018-04-15T10:18:59.316Z,22.33
2018-04-15T10:21:26.770Z,21.80
2018-04-15T10:23:54.233Z,22.07
2018-04-15T10:26:21.677Z,21.10
2018-04-15T10:28:49.895Z,20.80
2018-04-15T10:31:17.344Z,20.27
2018-04-15T10:33:44.849Z,19.03
2018-04-15T10:36:12.288Z,20.17
2018-04-15T10:38:39.735Z,19.80
2018-04-15T10:41:07.190Z,20.43
2018-04-15T10:43:34.654Z,20.60
2018-04-15T10:46:02.133Z,20.27
2018-04-15T10:48:29.549Z,19.90
2018-04-15T10:50:57.763Z,21.03
2018-04-15T10:53:25.213Z,23.00
2018-04-15T10:55:52.661Z,21.93
2018-04-15T10:58:20.873Z,21.07
2018-04-15T11:00:48.328Z,21.90
2018-04-15T11:03:15.778Z,24.47
2018-04-15T11:05:43.233Z,24.30
2018-04-15T11:08:10.694Z,24.27
2018-04-15T11:10:38.910Z,24.33
2018-04-15T11:13:06.364Z,23.73
2018-04-15T11:15:33.932Z,24.10
2018-04-15T11:18:01.401Z,23.73
2018-04-15T11:20:28.856Z,23.50
2018-04-15T11:22:56.950Z,25.70
2018-04-15T11:25:24.406Z,25.77
2018-04-15T11:27:52.641Z,24.30
2018-04-15T11:30:20.871Z,24.40
2018-04-15T11:32:48.350Z,21.67
2018-04-15T11:35:15.789Z,20.27
2018-04-15T11:37:43.247Z,18.67
2018-04-15T11:40:10.746Z,18.13
2018-04-15T11:42:38.185Z,17.50
2018-04-15T11:45:05.632Z,15.53
2018-04-15T11:47:33.100Z,14.70
2018-04-15T11:50:00.529Z,13.63
2018-04-15T11:52:28.750Z,13.33
2018-04-15T11:54:56.263Z,13.20
2018-04-15T11:57:23.711Z,13.17
2018-04-15T11:59:51.161Z,13.37
2018-04-15T12:02:18.640Z,12.87
2018-04-15T12:04:46.093Z,13.13
2018-04-15T12:07:13.545Z,13.38
2018-04-15T12:09:41.009Z,12.00
2018-04-15T12:12:09.773Z,12.00
2018-04-15T12:14:37.260Z,10.83
2018-04-15T12:17:04.722Z,10.97
2018-04-15T12:19:32.161Z,11.57
2018-04-15T12:21:59.618Z,10.70
2018-04-15T12:24:27.066Z,14.20
2018-04-15T12:26:54.538Z,25.53
2018-04-15T12:29:21.986Z,21.33
2018-04-15T12:31:50.221Z,17.53
2018-04-15T12:34:19.177Z,23.33
2018-04-15T12:36:46.639Z,15.60
2018-04-15T12:39:14.103Z,21.80
2018-04-15T12:41:41.574Z,28.07
2018-04-15T12:44:09.037Z,21.53
2018-04-15T12:46:36.522Z,22.93
2018-04-15T12:49:04.757Z,21.50
2018-04-15T12:51:32.966Z,15.43
2018-04-15T12:54:00.454Z,24.43
2018-04-15T12:56:27.909Z,16.97
2018-04-15T12:58:55.363Z,23.17
2018-04-15T13:01:22.825Z,24.33
2018-04-15T13:03:50.283Z,28.10
2018-04-15T13:06:17.767Z,24.70
2018-04-15T13:08:45.235Z,25.80
2018-04-15T13:11:12.699Z,20.63
2018-04-15T13:13:40.166Z,28.20
2018-04-15T13:16:07.630Z,28.07
2018-04-15T13:18:35.078Z,27.30
2018-04-15T13:21:02.534Z,22.10
2018-04-15T13:23:30.042Z,20.67
2018-04-15T13:25:58.282Z,20.20
2018-04-15T13:28:25.766Z,19.87
2018-04-15T13:30:53.197Z,21.30
2018-04-15T13:33:20.668Z,19.47
2018-04-15T13:35:48.110Z,22.40
2018-04-15T13:38:15.588Z,19.97
2018-04-15T13:40:45.514Z,18.60
2018-04-15T13:43:12.989Z,18.43
2018-04-15T13:45:41.277Z,19.90
2018-04-15T13:48:08.754Z,18.43
2018-04-15T13:50:36.973Z,17.03
2018-04-15T13:53:06.374Z,16.93
2018-04-15T13:55:33.814Z,16.97
2018-04-15T13:58:02.994Z,17.43
2018-04-15T14:00:30.492Z,18.80
2018-04-15T14:02:58.701Z,18.03
2018-04-15T14:05:26.174Z,18.53
2018-04-15T14:07:53.729Z,18.40
2018-04-15T14:10:21.198Z,18.90
2018-04-15T14:12:48.661Z,19.13
2018-04-15T14:15:16.121Z,18.63
2018-04-15T14:17:43.572Z,17.27
2018-04-15T14:20:11.026Z,16.60
2018-04-15T14:22:38.531Z,16.37
2018-04-15T14:25:05.990Z,16.60
2018-04-15T14:27:33.454Z,30.13
2018-04-15T14:30:00.935Z,26.30
2018-04-15T14:32:28.402Z,50.67
2018-04-15T14:34:56.624Z,24.80
2018-04-15T14:37:24.093Z,24.57
2018-04-15T14:39:51.550Z,24.53
2018-04-15T14:42:19.047Z,20.67
2018-04-15T14:44:46.497Z,20.00
2018-04-15T14:47:13.963Z,19.43
2018-04-15T14:49:41.472Z,19.07
2018-04-15T14:52:09.706Z,20.10
2018-04-15T14:54:37.166Z,18.00
2018-04-15T14:57:04.643Z,20.83
2018-04-15T14:59:32.117Z,20.50
2018-04-15T15:01:59.561Z,21.03
2018-04-15T15:04:27.046Z,20.30
2018-04-15T15:06:54.511Z,20.37
2018-04-15T15:09:21.969Z,19.37
2018-04-15T15:11:49.445Z,18.03
2018-04-15T15:14:16.930Z,17.53
2018-04-15T15:16:44.367Z,16.53
2018-04-15T15:19:11.822Z,16.30
2018-04-15T15:21:39.304Z,16.13
2018-04-15T15:24:07.582Z,15.07
2018-04-15T15:26:35.808Z,16.67
2018-04-15T15:29:03.294Z,16.83
2018-04-15T15:31:30.757Z,16.20
2018-04-15T15:33:58.217Z,20.70
2018-04-15T15:36:25.657Z,17.00
2018-04-15T15:38:53.132Z,18.90
2018-04-15T15:41:20.590Z,16.93
2018-04-15T15:43:48.040Z,16.47
2018-04-15T15:46:15.526Z,18.40
2018-04-15T15:48:42.990Z,36.37
2018-04-15T15:51:11.205Z,29.83
2018-04-15T15:53:39.454Z,21.47
2018-04-15T15:56:06.902Z,25.57
2018-04-15T15:58:34.365Z,19.63
2018-04-15T16:01:01.833Z,19.57
2018-04-15T16:03:29.319Z,19.73
2018-04-15T16:05:56.859Z,19.63
2018-04-15T16:08:24.308Z,19.73
2018-04-15T16:10:52.553Z,20.57
2018-04-15T16:13:20.757Z,21.47
2018-04-15T16:15:48.239Z,19.53
2018-04-15T16:18:15.705Z,25.97
2018-04-15T16:20:43.174Z,29.10
2018-04-15T16:23:10.696Z,21.90
2018-04-15T16:25:38.179Z,22.33
2018-04-15T16:28:05.645Z,28.23
2018-04-15T16:30:33.123Z,22.33
2018-04-15T16:33:00.602Z,21.63
2018-04-15T16:35:28.072Z,22.63
2018-04-15T16:37:55.544Z,21.70
2018-04-15T16:40:23.004Z,20.00
2018-04-15T16:42:50.481Z,20.17
2018-04-15T16:45:18.703Z,20.90
2018-04-15T16:47:46.305Z,20.27
2018-04-15T16:50:13.706Z,18.70
2018-04-15T16:52:41.164Z,18.37
2018-04-15T16:55:09.391Z,18.17
2018-04-15T16:57:36.855Z,19.47
2018-04-15T17:00:04.449Z,18.23
2018-04-15T17:02:31.866Z,18.40
2018-04-15T17:04:59.353Z,17.93
2018-04-15T17:07:27.614Z,18.00
2018-04-15T17:09:55.083Z,17.27
2018-04-15T17:12:22.568Z,17.13
2018-04-15T17:14:50.733Z,16.70
2018-04-15T17:17:18.205Z,17.07
2018-04-15T17:19:45.649Z,16.83
2018-04-15T17:22:13.140Z,17.00
2018-04-15T17:24:40.558Z,17.17
2018-04-15T17:27:08.027Z,16.47
2018-04-15T17:29:35.490Z,16.33
2018-04-15T17:32:02.980Z,16.17
2018-04-15T17:34:30.432Z,15.50
2018-04-15T17:36:57.901Z,16.63
2018-04-15T17:39:26.119Z,17.33
2018-04-15T17:41:54.345Z,16.37
2018-04-15T17:44:21.816Z,16.77
2018-04-15T17:46:49.317Z,16.40
2018-04-15T17:49:16.832Z,16.07
2018-04-15T17:51:44.313Z,15.90
2018-04-15T17:54:11.765Z,15.37
2018-04-15T17:56:39.642Z,15.10
2018-04-15T17:59:07.110Z,15.73
2018-04-15T18:01:34.582Z,15.83
2018-04-15T18:04:02.048Z,14.77
2018-04-15T18:06:29.494Z,15.47
2018-04-15T18:08:57.731Z,15.50
2018-04-15T18:11:25.924Z,14.37
2018-04-15T18:13:53.445Z,15.23
2018-04-15T18:16:20.876Z,14.80
2018-04-15T18:18:48.503Z,15.37
2018-04-15T18:21:15.967Z,15.27
2018-04-15T18:23:43.467Z,14.93
2018-04-15T18:26:10.964Z,14.57
2018-04-15T18:28:39.201Z,14.27
2018-04-15T18:31:06.670Z,13.57
2018-04-15T18:33:34.142Z,14.50
2018-04-15T18:36:01.611Z,13.77
2018-04-15T18:38:29.063Z,12.87
2018-04-15T18:40:56.521Z,13.10
2018-04-15T18:43:23.967Z,13.43
2018-04-15T18:45:51.431Z,13.90
2018-04-15T18:48:18.978Z,12.87
2018-04-15T18:50:46.432Z,13.77
2018-04-15T18:53:14.665Z,14.10
2018-04-15T18:55:42.139Z,13.37
2018-04-15T18:58:09.600Z,13.63
2018-04-15T19:00:37.130Z,13.93
2018-04-15T19:03:04.590Z,13.47
2018-04-15T19:05:32.062Z,13.37
2018-04-15T19:07:59.513Z,14.17
2018-04-15T19:10:27.730Z,13.43
2018-04-15T19:12:55.184Z,14.43
2018-04-15T19:15:22.677Z,14.20
2018-04-15T19:17:50.133Z,14.20
2018-04-15T19:20:17.586Z,13.97
2018-04-15T19:22:45.056Z,14.30
2018-04-15T19:25:12.567Z,14.60
2018-04-15T19:27:40.024Z,14.00
2018-04-15T19:30:07.490Z,14.73
2018-04-15T19:32:35.010Z,14.70
2018-04-15T19:35:02.502Z,13.83
2018-04-15T19:37:30.732Z,15.40
2018-04-15T19:39:58.204Z,13.97
2018-04-15T19:42:25.675Z,13.10
2018-04-15T19:44:53.150Z,14.10
2018-04-15T19:47:20.613Z,13.63
2018-04-15T19:49:49.095Z,14.77
2018-04-15T19:52:17.124Z,13.37
2018-04-15T19:54:44.606Z,14.23
2018-04-15T19:57:12.073Z,14.40
2018-04-15T19:59:40.292Z,14.20
2018-04-15T20:02:08.591Z,14.07
2018-04-15T20:04:36.091Z,13.47
2018-04-15T20:07:03.551Z,14.13
2018-04-15T20:09:30.993Z,13.90
2018-04-15T20:11:58.500Z,14.77
2018-04-15T20:14:25.925Z,14.37
2018-04-15T20:16:53.388Z,13.37
2018-04-15T20:19:20.887Z,14.60
2018-04-15T20:21:48.358Z,14.33
2018-04-15T20:24:15.831Z,14.70
2018-04-15T20:26:43.289Z,14.13
2018-04-15T20:29:10.778Z,15.30
2018-04-15T20:31:39.409Z,13.97
2018-04-15T20:34:06.871Z,14.73
2018-04-15T20:36:34.930Z,15.70
2018-04-15T20:39:02.397Z,14.63
2018-04-15T20:41:29.855Z,14.93
2018-04-15T20:43:57.298Z,14.10
2018-04-15T20:46:24.770Z,14.63
2018-04-15T20:48:52.250Z,14.77
2018-04-15T20:51:19.772Z,13.80
2018-04-15T20:53:47.186Z,14.10
2018-04-15T20:56:14.652Z,13.83
2018-04-15T20:58:42.891Z,13.97
2018-04-15T21:01:11.103Z,13.43
2018-04-15T21:03:38.574Z,12.93
2018-04-15T21:06:06.018Z,13.10
2018-04-15T21:08:33.519Z,13.63
2018-04-15T21:11:00.963Z,14.00
2018-04-15T21:13:28.442Z,13.87
2018-04-15T21:15:55.897Z,12.77
2018-04-15T21:18:23.349Z,13.23
2018-04-15T21:20:51.639Z,13.50
2018-04-15T21:23:19.339Z,12.87
2018-04-15T21:25:46.839Z,12.97
2018-04-15T21:28:14.303Z,12.37
2018-04-15T21:30:41.790Z,12.93
2018-04-15T21:33:09.242Z,13.13
2018-04-15T21:35:36.715Z,11.93
2018-04-15T21:38:04.166Z,11.67
2018-04-15T21:40:31.677Z,11.47
2018-04-15T21:42:59.152Z,12.37
2018-04-15T21:45:27.381Z,10.90
2018-04-15T21:47:54.834Z,11.30
2018-04-15T21:50:22.318Z,10.80
2018-04-15T21:52:49.805Z,9.70
2018-04-15T21:55:18.068Z,9.40
2018-04-15T21:57:45.532Z,10.07
2018-04-15T22:00:12.997Z,9.23
2018-04-15T22:02:40.454Z,9.40
2018-04-15T22:05:07.956Z,9.20
2018-04-15T22:07:35.411Z,8.67
2018-04-15T22:10:02.864Z,8.20
2018-04-15T22:12:30.328Z,7.90
2018-04-15T22:14:58.805Z,7.57
2018-04-15T22:17:26.807Z,8.77
2018-04-15T22:19:55.037Z,7.97
2018-04-15T22:22:22.493Z,8.07
2018-04-15T22:24:49.937Z,7.93
2018-04-15T22:27:17.394Z,7.93
2018-04-15T22:29:44.832Z,6.47
2018-04-15T22:32:13.101Z,6.47
2018-04-15T22:34:40.569Z,5.50
2018-04-15T22:37:08.002Z,5.13
2018-04-15T22:39:35.472Z,4.40
2018-04-15T22:42:02.936Z,4.07
2018-04-15T22:44:30.421Z,4.20
2018-04-15T22:46:58.662Z,3.93
2018-04-15T22:49:27.082Z,3.17
2018-04-15T22:51:54.537Z,2.80
2018-04-15T22:54:21.989Z,2.70
2018-04-15T22:56:49.463Z,3.10
2018-04-15T22:59:16.908Z,2.43
2018-04-15T23:01:44.392Z,2.47
2018-04-15T23:04:11.852Z,3.07
2018-04-15T23:06:39.318Z,2.90
2018-04-15T23:09:06.756Z,3.10
2018-04-15T23:11:34.973Z,2.20
2018-04-15T23:14:03.197Z,3.10
2018-04-15T23:16:30.651Z,2.60
2018-04-15T23:18:58.120Z,3.10
2018-04-15T23:21:25.605Z,2.50
2018-04-15T23:23:53.051Z,2.43
2018-04-15T23:26:20.524Z,2.27
2018-04-15T23:28:47.981Z,2.00
2018-04-15T23:31:15.426Z,1.70
2018-04-15T23:33:42.901Z,2.07
2018-04-15T23:36:10.351Z,1.80
2018-04-15T23:38:37.784Z,1.97
2018-04-15T23:41:06.000Z,1.63
2018-04-15T23:43:33.476Z,1.80
2018-04-15T23:46:00.953Z,1.77
2018-04-15T23:48:28.385Z,1.40
2018-04-15T23:50:55.863Z,1.97
2018-04-15T23:53:23.376Z,1.57
2018-04-15T23:55:50.804Z,1.40
2018-04-15T23:58:18.538Z,1.60
